createdAt,value
2019-05-28T00:00:51.530Z,1.55
2019-05-28T00:03:20.720Z,2.60
2019-05-28T00:05:49.728Z,3.90
2019-05-28T00:08:18.645Z,2.40
2019-05-28T00:10:47.661Z,3.30
2019-05-28T00:13:16.545Z,2.58
2019-05-28T00:15:45.557Z,3.72
2019-05-28T00:18:14.378Z,3.90
2019-05-28T00:20:43.176Z,2.87
2019-05-28T00:23:11.933Z,2.40
2019-05-28T00:25:40.697Z,4.20
2019-05-28T00:28:09.690Z,1.87
2019-05-28T00:30:38.490Z,3.10
2019-05-28T00:33:07.302Z,2.30
2019-05-28T00:35:36.545Z,3.15
2019-05-28T00:38:05.546Z,6.12
2019-05-28T00:40:34.366Z,3.12
2019-05-28T00:43:03.428Z,2.05
2019-05-28T00:45:32.714Z,4.00
2019-05-28T00:48:01.935Z,2.62
2019-05-28T00:50:31.077Z,5.17
2019-05-28T00:52:59.904Z,4.65
2019-05-28T00:55:28.816Z,4.15
2019-05-28T00:57:57.767Z,2.50
2019-05-28T01:00:59.348Z,4.62
2019-05-28T01:03:28.178Z,4.90
2019-05-28T01:05:57.621Z,6.30
2019-05-28T01:08:26.432Z,2.60
2019-05-28T01:10:55.216Z,2.97
2019-05-28T01:13:24.044Z,2.45
2019-05-28T01:15:52.872Z,5.00
2019-05-28T01:18:21.628Z,2.50
2019-05-28T01:20:50.437Z,2.67
2019-05-28T01:23:19.481Z,3.02
2019-05-28T01:25:48.150Z,4.00
2019-05-28T01:28:17.078Z,4.80
2019-05-28T01:30:56.064Z,4.28
2019-05-28T01:33:14.974Z,2.70
2019-05-28T01:35:43.908Z,3.33
2019-05-28T01:38:13.544Z,2.52
2019-05-28T01:40:43.012Z,5.05
2019-05-28T01:43:11.790Z,3.12
2019-05-28T01:45:40.758Z,2.20
2019-05-28T01:48:09.646Z,3.66
2019-05-28T01:50:38.428Z,3.60
2019-05-28T01:53:07.453Z,2.20
2019-05-28T01:55:36.325Z,3.05
2019-05-28T01:58:05.362Z,2.33
2019-05-28T02:00:34.184Z,2.55
2019-05-28T02:03:03.191Z,3.02
2019-05-28T02:05:31.944Z,3.20
2019-05-28T02:08:00.716Z,4.80
2019-05-28T02:10:29.589Z,4.15
2019-05-28T02:12:58.603Z,3.20
2019-05-28T02:15:27.729Z,4.70
2019-05-28T02:17:56.477Z,3.55
2019-05-28T02:20:25.444Z,4.30
2019-05-28T02:22:54.360Z,5.28
2019-05-28T02:25:23.281Z,3.83
2019-05-28T02:27:52.037Z,3.22
2019-05-28T02:30:21.029Z,3.00
2019-05-28T02:32:49.857Z,6.90
2019-05-28T02:35:18.813Z,2.83
2019-05-28T02:37:47.765Z,4.47
2019-05-28T02:40:16.735Z,2.50
2019-05-28T02:42:45.433Z,2.80
2019-05-28T02:45:14.275Z,3.35
2019-05-28T02:47:43.288Z,2.85
2019-05-28T02:50:12.177Z,6.08
2019-05-28T02:52:40.965Z,5.08
2019-05-28T02:55:09.844Z,2.00
2019-05-28T02:57:39.385Z,2.12
2019-05-28T03:00:08.605Z,4.47
2019-05-28T03:02:37.713Z,2.40
2019-05-28T03:05:06.614Z,2.12
2019-05-28T03:07:35.724Z,2.65
2019-05-28T03:10:05.304Z,1.82
2019-05-28T03:12:34.461Z,2.37
2019-05-28T03:15:03.480Z,3.33
2019-05-28T03:17:32.352Z,3.62
2019-05-28T03:20:01.065Z,3.05
2019-05-28T03:22:30.071Z,3.05
2019-05-28T03:24:58.873Z,1.65
2019-05-28T03:27:27.615Z,3.00
2019-05-28T03:29:56.471Z,1.80
2019-05-28T03:32:25.538Z,2.42
2019-05-28T03:34:54.319Z,2.33
2019-05-28T03:37:23.113Z,2.15
2019-05-28T03:39:51.881Z,2.72
2019-05-28T03:43:23.447Z,2.55
2019-05-28T03:45:52.223Z,6.17
2019-05-28T03:48:21.341Z,2.45
2019-05-28T03:50:50.266Z,4.30
2019-05-28T03:53:19.033Z,3.37
2019-05-28T03:55:48.523Z,2.58
2019-05-28T03:58:17.537Z,2.90
2019-05-28T04:00:46.481Z,3.15
2019-05-28T04:03:15.411Z,3.17
2019-05-28T04:05:44.381Z,2.83
2019-05-28T04:08:13.612Z,2.30
2019-05-28T04:10:42.343Z,3.15
2019-05-28T04:13:11.108Z,3.90
2019-05-28T04:15:40.196Z,4.17
2019-05-28T04:18:09.250Z,3.35
2019-05-28T04:20:37.962Z,3.27
2019-05-28T04:23:09.024Z,6.45
2019-05-28T04:25:37.744Z,6.12
2019-05-28T04:28:06.532Z,4.58
2019-05-28T04:30:35.432Z,5.95
2019-05-28T04:33:05.125Z,6.83
2019-05-28T04:35:33.939Z,7.75
2019-05-28T04:38:02.808Z,4.05
2019-05-28T04:40:31.664Z,4.55
2019-05-28T04:43:00.491Z,5.50
2019-05-28T04:45:29.303Z,4.33
2019-05-28T04:47:58.409Z,4.20
2019-05-28T04:50:27.071Z,4.10
2019-05-28T04:52:55.712Z,5.67
2019-05-28T04:55:24.519Z,5.20
2019-05-28T04:57:54.118Z,4.92
2019-05-28T05:00:23.046Z,4.20
2019-05-28T05:02:59.437Z,4.37
2019-05-28T05:05:20.742Z,6.53
2019-05-28T05:07:49.304Z,4.70
2019-05-28T05:10:19.198Z,6.87
2019-05-28T05:12:46.603Z,6.12
2019-05-28T05:15:15.257Z,7.08
2019-05-28T05:17:43.945Z,5.40
2019-05-28T05:20:12.611Z,6.00
2019-05-28T05:22:41.251Z,7.65
2019-05-28T05:25:10.008Z,6.05
2019-05-28T05:28:09.652Z,5.45
2019-05-28T05:30:38.638Z,6.70
2019-05-28T05:33:19.902Z,4.72
2019-05-28T05:35:36.168Z,6.35
2019-05-28T05:38:05.258Z,6.42
2019-05-28T05:40:33.999Z,4.75
2019-05-28T05:43:02.790Z,5.80
2019-05-28T05:45:31.546Z,4.28
2019-05-28T05:48:00.471Z,5.25
2019-05-28T05:50:29.138Z,4.65
2019-05-28T05:52:57.747Z,6.03
2019-05-28T05:55:26.643Z,4.35
2019-05-28T05:57:55.503Z,3.75
2019-05-28T06:00:24.128Z,4.42
2019-05-28T06:02:52.730Z,5.30
2019-05-28T06:05:21.452Z,6.93
2019-05-28T06:07:50.269Z,4.55
2019-05-28T06:10:19.047Z,5.12
2019-05-28T06:12:47.645Z,5.97
2019-05-28T06:15:16.502Z,7.80
2019-05-28T06:17:45.483Z,4.78
2019-05-28T06:20:14.408Z,5.23
2019-05-28T06:22:43.148Z,6.95
2019-05-28T06:25:12.039Z,8.07
2019-05-28T06:27:40.778Z,5.15
2019-05-28T06:30:09.476Z,4.65
2019-05-28T06:32:38.747Z,5.40
2019-05-28T06:35:07.160Z,5.20
2019-05-28T06:37:36.031Z,5.03
2019-05-28T06:40:05.858Z,4.97
2019-05-28T06:42:39.092Z,4.87
2019-05-28T06:45:03.770Z,5.80
2019-05-28T06:47:32.510Z,5.35
2019-05-28T06:50:01.230Z,5.78
2019-05-28T06:52:29.876Z,6.40
2019-05-28T06:54:58.579Z,5.90
2019-05-28T06:57:27.251Z,7.60
2019-05-28T06:59:55.862Z,6.87
2019-05-28T07:02:24.708Z,7.37
2019-05-28T07:04:53.337Z,6.65
2019-05-28T07:07:22.327Z,6.03
2019-05-28T07:09:51.239Z,9.10
2019-05-28T07:12:20.007Z,8.60
2019-05-28T07:14:48.764Z,8.88
2019-05-28T07:17:17.522Z,9.00
2019-05-28T07:19:46.183Z,10.00
2019-05-28T07:22:15.248Z,9.73
2019-05-28T07:24:44.470Z,12.43
2019-05-28T07:27:13.115Z,8.95
2019-05-28T07:29:41.911Z,9.80
2019-05-28T07:32:10.583Z,8.75
2019-05-28T07:34:39.182Z,8.03
2019-05-28T07:37:07.850Z,6.90
2019-05-28T07:39:36.454Z,7.92
2019-05-28T07:42:05.277Z,6.58
2019-05-28T07:44:33.938Z,6.95
2019-05-28T07:47:02.539Z,6.85
2019-05-28T07:49:31.239Z,7.05
2019-05-28T07:52:00.031Z,7.17
2019-05-28T07:54:28.838Z,9.90
2019-05-28T07:56:57.457Z,7.67
2019-05-28T07:59:26.003Z,7.10
2019-05-28T08:01:54.717Z,9.35
2019-05-28T08:04:23.486Z,8.75
2019-05-28T08:06:55.076Z,8.80
2019-05-28T08:09:21.326Z,10.15
2019-05-28T08:11:50.422Z,7.92
2019-05-28T08:14:19.576Z,8.60
2019-05-28T08:16:52.756Z,10.30
2019-05-28T08:19:17.979Z,9.90
2019-05-28T08:21:47.010Z,8.43
2019-05-28T08:24:16.045Z,8.48
2019-05-28T08:26:44.987Z,9.05
2019-05-28T08:29:14.077Z,8.95
2019-05-28T08:31:42.886Z,9.78
2019-05-28T08:34:12.193Z,11.28
2019-05-28T08:36:41.238Z,11.55
2019-05-28T08:39:10.089Z,10.90
2019-05-28T08:41:39.197Z,13.62
2019-05-28T08:44:08.307Z,13.85
2019-05-28T08:46:37.497Z,12.00
2019-05-28T08:49:06.511Z,17.32
2019-05-28T08:51:35.448Z,13.00
2019-05-28T08:54:05.286Z,15.28
2019-05-28T08:56:34.281Z,14.40
2019-05-28T08:59:03.290Z,11.05
2019-05-28T09:01:32.127Z,14.45
2019-05-28T09:04:01.027Z,11.53
2019-05-28T09:06:30.279Z,16.10
2019-05-28T09:08:59.107Z,16.27
2019-05-28T09:11:28.122Z,17.73
2019-05-28T09:13:57.062Z,13.25
2019-05-28T09:16:25.970Z,14.07
2019-05-28T09:18:54.917Z,13.60
2019-05-28T09:21:23.793Z,14.20
2019-05-28T09:23:52.549Z,11.78
2019-05-28T09:26:21.416Z,13.48
2019-05-28T09:28:50.638Z,12.37
2019-05-28T09:31:19.470Z,14.10
2019-05-28T09:33:48.332Z,13.65
2019-05-28T09:36:17.499Z,16.45
2019-05-28T09:38:46.410Z,11.83
2019-05-28T09:41:15.646Z,12.63
2019-05-28T09:43:44.942Z,11.38
2019-05-28T09:46:13.755Z,14.38
2019-05-28T09:48:42.657Z,16.57
2019-05-28T09:51:11.574Z,15.38
2019-05-28T09:53:40.387Z,15.83
2019-05-28T09:56:17.861Z,15.05
2019-05-28T09:58:46.737Z,18.32
2019-05-28T10:01:15.629Z,18.15
2019-05-28T10:03:44.449Z,18.70
2019-05-28T10:06:17.490Z,22.02
2019-05-28T10:08:42.419Z,23.40
2019-05-28T10:11:11.416Z,27.25
2019-05-28T10:13:41.847Z,26.25
2019-05-28T10:16:09.420Z,25.72
2019-05-28T10:18:38.270Z,23.30
2019-05-28T10:21:17.851Z,17.95
2019-05-28T10:23:35.997Z,20.32
2019-05-28T10:26:05.065Z,20.15
2019-05-28T10:28:33.904Z,20.02
2019-05-28T10:31:03.127Z,20.43
2019-05-28T10:33:31.931Z,23.90
2019-05-28T10:36:00.903Z,26.10
2019-05-28T10:38:29.768Z,25.82
2019-05-28T10:40:59.018Z,25.60
2019-05-28T10:43:27.933Z,25.92
2019-05-28T10:45:56.810Z,26.23
2019-05-28T10:48:26.053Z,25.95
2019-05-28T10:50:55.912Z,28.30
2019-05-28T10:53:24.789Z,19.07
2019-05-28T10:55:53.664Z,14.87
2019-05-28T10:58:22.497Z,12.90
2019-05-28T11:00:51.536Z,12.60
2019-05-28T11:03:20.805Z,14.15
2019-05-28T11:05:49.608Z,12.25
2019-05-28T11:08:18.820Z,14.95
2019-05-28T11:10:47.801Z,13.10
2019-05-28T11:15:58.841Z,11.95
2019-05-28T11:18:35.187Z,12.37
2019-05-28T11:21:18.291Z,13.35
2019-05-28T11:23:58.117Z,11.65
2019-05-28T11:32:05.551Z,10.80
2019-05-28T11:37:43.521Z,13.07
2019-05-28T11:40:32.421Z,14.00
2019-05-28T11:46:28.897Z,11.60
2019-05-28T11:56:46.840Z,9.82
2019-05-28T12:24:02.791Z,7.67
2019-05-28T12:39:50.781Z,13.15
2019-05-28T12:42:19.585Z,11.65
2019-05-28T12:44:48.315Z,8.53
2019-05-28T12:47:17.069Z,11.28
2019-05-28T12:49:46.033Z,10.18
2019-05-28T12:52:14.827Z,12.70
2019-05-28T12:54:43.471Z,8.68
2019-05-28T12:57:12.425Z,11.63
2019-05-28T12:59:41.279Z,8.38
2019-05-28T13:02:09.899Z,10.20
2019-05-28T13:04:38.873Z,13.43
2019-05-28T13:07:07.599Z,9.18
2019-05-28T13:09:36.256Z,11.22
2019-05-28T13:12:05.261Z,10.50
2019-05-28T13:14:34.025Z,8.93
2019-05-28T13:17:03.229Z,9.33
2019-05-28T13:19:32.123Z,9.20
2019-05-28T13:22:00.788Z,9.25
2019-05-28T13:24:29.418Z,11.43
2019-05-28T13:27:14.871Z,9.38
2019-05-28T13:29:26.827Z,11.15
2019-05-28T13:31:55.426Z,10.23
2019-05-28T13:34:24.051Z,8.23
2019-05-28T13:36:52.671Z,9.05
2019-05-28T13:39:21.327Z,11.12
2019-05-28T13:41:50.164Z,8.88
2019-05-28T13:44:19.085Z,9.50
2019-05-28T13:46:48.228Z,8.80
2019-05-28T13:49:17.615Z,11.00
2019-05-28T13:52:10.776Z,10.18
2019-05-28T13:54:24.583Z,14.50
2019-05-28T13:56:54.468Z,8.60
2019-05-28T13:59:23.356Z,10.17
2019-05-28T14:01:52.150Z,11.48
2019-05-28T14:04:21.059Z,7.22
2019-05-28T14:06:50.075Z,11.12
2019-05-28T14:09:19.302Z,10.82
2019-05-28T14:11:48.424Z,11.43
2019-05-28T14:14:17.256Z,12.50
2019-05-28T14:16:46.091Z,13.43
2019-05-28T14:19:15.040Z,10.72
2019-05-28T14:21:44.308Z,10.28
2019-05-28T14:24:17.965Z,11.93
2019-05-28T14:26:47.255Z,11.22
2019-05-28T14:29:19.664Z,10.13
2019-05-28T14:31:48.493Z,11.63
2019-05-28T14:34:17.104Z,11.55
2019-05-28T14:36:45.710Z,9.98
2019-05-28T14:39:14.627Z,9.55
2019-05-28T14:41:43.193Z,11.95
2019-05-28T14:48:07.974Z,12.15
2019-05-28T14:50:36.993Z,11.25
2019-05-28T14:53:05.587Z,11.75
2019-05-28T14:55:34.435Z,11.50
2019-05-28T14:58:05.482Z,12.70
2019-05-28T15:00:31.847Z,8.40
2019-05-28T15:03:00.457Z,10.88
2019-05-28T15:05:29.042Z,10.53
2019-05-28T15:07:57.701Z,10.18
2019-05-28T15:10:26.602Z,8.60
2019-05-28T15:12:55.419Z,7.30
2019-05-28T15:15:35.098Z,7.75
2019-05-28T15:17:52.553Z,8.85
2019-05-28T15:20:21.169Z,8.45
2019-05-28T15:22:50.026Z,8.65
2019-05-28T15:25:18.943Z,8.63
2019-05-28T15:27:47.661Z,5.00
2019-05-28T15:30:16.330Z,4.60
2019-05-28T15:32:44.921Z,4.37
2019-05-28T15:35:13.663Z,4.20
2019-05-28T15:37:42.354Z,3.95
2019-05-28T15:40:11.024Z,3.75
2019-05-28T15:42:40.035Z,4.12
2019-05-28T15:45:08.780Z,2.58
2019-05-28T15:47:37.509Z,3.12
2019-05-28T15:50:06.331Z,2.80
2019-05-28T15:52:34.897Z,5.22
2019-05-28T15:55:03.593Z,5.87
2019-05-28T15:57:32.236Z,4.92
2019-05-28T16:00:00.777Z,5.42
2019-05-28T16:02:29.772Z,4.35
2019-05-28T16:04:58.694Z,2.72
2019-05-28T16:07:27.283Z,3.15
2019-05-28T16:09:56.862Z,4.55
2019-05-28T16:12:24.778Z,7.15
2019-05-28T16:14:53.355Z,3.90
2019-05-28T16:17:22.085Z,5.50
2019-05-28T16:19:50.992Z,5.05
2019-05-28T16:22:19.905Z,7.00
2019-05-28T16:24:48.488Z,5.78
2019-05-28T16:27:17.271Z,4.83
2019-05-28T16:29:45.999Z,9.00
2019-05-28T16:32:14.580Z,7.80
2019-05-28T16:34:43.154Z,6.28
2019-05-28T16:37:11.723Z,5.03
2019-05-28T16:39:40.301Z,9.55
2019-05-28T16:42:08.980Z,8.80
2019-05-28T16:44:37.788Z,6.78
2019-05-28T16:47:17.854Z,6.30
2019-05-28T16:49:35.278Z,6.50
2019-05-28T16:52:04.842Z,6.83
2019-05-28T16:54:33.475Z,7.08
2019-05-28T16:57:02.017Z,6.53
2019-05-28T16:59:30.788Z,7.55
2019-05-28T17:01:59.550Z,6.35
2019-05-28T17:04:28.163Z,7.00
2019-05-28T17:06:56.703Z,8.93
2019-05-28T17:09:25.267Z,5.35
2019-05-28T17:11:53.910Z,10.53
2019-05-28T17:14:26.349Z,9.23
2019-05-28T17:16:51.381Z,10.53
2019-05-28T17:19:19.927Z,10.45
2019-05-28T17:21:48.468Z,8.73
2019-05-28T17:24:17.069Z,7.60
2019-05-28T17:26:45.968Z,10.58
2019-05-28T17:29:14.568Z,7.95
2019-05-28T17:31:43.655Z,6.42
2019-05-28T17:34:13.256Z,10.38
2019-05-28T17:36:41.995Z,8.18
2019-05-28T17:39:12.776Z,9.78
2019-05-28T17:41:41.945Z,11.22
2019-05-28T17:44:10.943Z,10.88
2019-05-28T17:46:39.765Z,6.92
2019-05-28T17:49:08.457Z,9.33
2019-05-28T17:51:37.123Z,8.50
2019-05-28T17:54:05.985Z,9.10
2019-05-28T17:56:34.865Z,7.65
2019-05-28T17:59:03.547Z,7.85
2019-05-28T18:01:32.560Z,8.33
2019-05-28T18:04:01.161Z,10.10
2019-05-28T18:06:29.809Z,12.07
2019-05-28T18:08:58.501Z,10.98
2019-05-28T18:11:27.088Z,13.43
2019-05-28T18:13:55.672Z,8.73
2019-05-28T18:16:24.462Z,14.55
2019-05-28T18:18:53.308Z,8.25
2019-05-28T18:21:22.235Z,8.08
2019-05-28T18:23:50.980Z,9.10
2019-05-28T18:26:19.613Z,7.17
2019-05-28T18:28:48.431Z,6.90
2019-05-28T18:31:17.077Z,6.42
2019-05-28T18:33:52.693Z,15.03
2019-05-28T18:36:21.492Z,9.50
2019-05-28T18:38:50.796Z,14.10
2019-05-28T18:41:21.897Z,11.00
2019-05-28T18:43:48.578Z,6.90
2019-05-28T18:46:17.232Z,6.03
2019-05-28T18:48:45.784Z,5.87
2019-05-28T18:51:14.378Z,6.25
2019-05-28T18:53:43.033Z,6.75
2019-05-28T18:56:17.616Z,6.10
2019-05-28T18:58:41.038Z,5.00
2019-05-28T19:01:09.553Z,6.42
2019-05-28T19:03:38.835Z,3.45
2019-05-28T19:06:07.812Z,7.45
2019-05-28T19:08:36.452Z,4.28
2019-05-28T19:11:05.215Z,4.83
2019-05-28T19:13:33.867Z,3.92
2019-05-28T19:16:02.549Z,5.75
2019-05-28T19:18:31.211Z,5.15
2019-05-28T19:20:59.800Z,5.47
2019-05-28T19:23:28.419Z,2.95
2019-05-28T19:25:57.013Z,4.87
2019-05-28T19:28:25.706Z,9.25
2019-05-28T19:30:54.620Z,3.50
2019-05-28T19:33:23.257Z,3.55
2019-05-28T19:35:51.812Z,4.28
2019-05-28T19:38:20.433Z,4.20
2019-05-28T19:40:49.028Z,4.80
2019-05-28T19:43:17.849Z,4.25
2019-05-28T19:45:46.657Z,3.50
2019-05-28T19:48:15.451Z,4.47
2019-05-28T19:50:46.286Z,5.42
2019-05-28T19:55:57.968Z,6.12
2019-05-28T19:58:26.685Z,6.95
2019-05-28T20:00:55.564Z,3.50
2019-05-28T20:03:24.146Z,4.58
2019-05-28T20:05:52.736Z,3.92
2019-05-28T20:08:21.473Z,4.12
2019-05-28T20:10:50.850Z,3.55
2019-05-28T20:13:18.734Z,4.67
2019-05-28T20:15:48.943Z,3.25
2019-05-28T20:18:26.431Z,5.97
2019-05-28T20:20:47.565Z,4.05
2019-05-28T20:23:16.636Z,4.58
2019-05-28T20:25:47.557Z,3.27
2019-05-28T20:28:14.461Z,3.98
2019-05-28T20:30:43.156Z,3.90
2019-05-28T20:33:11.973Z,4.53
2019-05-28T20:35:42.674Z,4.55
2019-05-28T20:38:14.205Z,5.20
2019-05-28T20:40:42.865Z,5.75
2019-05-28T20:43:11.891Z,5.12
2019-05-28T20:45:40.588Z,3.30
2019-05-28T20:48:11.008Z,3.47
2019-05-28T20:50:40.054Z,5.75
2019-05-28T20:53:08.757Z,4.70
2019-05-28T20:55:37.570Z,3.87
2019-05-28T20:58:06.751Z,3.95
2019-05-28T21:01:06.229Z,6.37
2019-05-28T21:03:34.948Z,4.80
2019-05-28T21:06:03.656Z,4.47
2019-05-28T21:08:32.432Z,4.37
2019-05-28T21:11:03.051Z,5.42
2019-05-28T21:13:33.034Z,7.90
2019-05-28T21:16:07.566Z,4.65
2019-05-28T21:18:41.312Z,5.70
2019-05-28T21:21:12.380Z,3.35
2019-05-28T21:23:47.854Z,7.05
2019-05-28T21:26:30.235Z,4.83
2019-05-28T21:29:13.025Z,6.53
2019-05-28T21:31:48.843Z,8.00
2019-05-28T21:34:24.286Z,5.22
2019-05-28T21:36:53.150Z,4.45
2019-05-28T21:42:03.803Z,8.75
2019-05-28T21:44:32.404Z,7.45
2019-05-28T21:47:02.512Z,9.18
2019-05-28T21:49:29.955Z,9.58
2019-05-28T21:51:58.885Z,7.75
2019-05-28T21:54:27.547Z,4.83
2019-05-28T21:56:57.313Z,7.25
2019-05-28T21:59:25.294Z,7.15
2019-05-28T22:01:54.028Z,7.10
2019-05-28T22:04:22.525Z,6.22
2019-05-28T22:06:51.369Z,6.22
2019-05-28T22:09:20.607Z,6.45
2019-05-28T22:11:49.481Z,6.25
2019-05-28T22:14:19.245Z,5.70
2019-05-28T22:16:47.841Z,6.85
2019-05-28T22:19:16.433Z,7.53
2019-05-28T22:21:45.179Z,5.20
2019-05-28T22:24:13.858Z,8.38
2019-05-28T22:26:42.429Z,7.90
2019-05-28T22:29:11.230Z,8.17
2019-05-28T22:31:40.106Z,9.13
2019-05-28T22:35:11.323Z,7.20
2019-05-28T22:37:39.925Z,9.03
2019-05-28T22:40:08.895Z,8.65
2019-05-28T22:42:37.489Z,12.33
2019-05-28T22:45:07.183Z,6.85
2019-05-28T22:47:34.957Z,11.28
2019-05-28T22:54:55.601Z,12.23
2019-05-28T22:57:24.195Z,8.85
2019-05-28T22:59:52.821Z,10.10
2019-05-28T23:02:21.395Z,9.90
2019-05-28T23:04:50.016Z,10.80
2019-05-28T23:07:18.836Z,13.15
2019-05-28T23:09:48.021Z,14.35
2019-05-28T23:12:16.770Z,13.10
2019-05-28T23:14:45.475Z,17.27
2019-05-28T23:17:14.141Z,16.40
2019-05-28T23:19:43.047Z,15.88
2019-05-28T23:22:11.917Z,14.13
2019-05-28T23:24:40.521Z,15.45
2019-05-28T23:27:09.612Z,12.00
2019-05-28T23:29:38.361Z,12.70
2019-05-28T23:32:08.229Z,10.00
2019-05-28T23:34:35.774Z,6.67
2019-05-28T23:37:05.986Z,11.20
2019-05-28T23:39:33.482Z,8.40
2019-05-28T23:42:03.310Z,11.85
2019-05-28T23:44:30.853Z,14.23
2019-05-28T23:46:59.853Z,9.85
2019-05-28T23:49:28.432Z,9.93
2019-05-28T23:51:57.223Z,11.10
2019-05-28T23:54:25.997Z,8.15
2019-05-28T23:56:54.610Z,8.90
2019-05-28T23:59:23.250Z,10.68
